createdAt,value
2022-11-04T00:00:03.885Z,90.70
2022-11-04T00:01:03.863Z,90.39
2022-11-04T00:02:03.839Z,90.49
2022-11-04T00:03:03.790Z,90.59
2022-11-04T00:04:03.742Z,90.39
2022-11-04T00:05:03.743Z,90.70
2022-11-04T00:06:03.743Z,90.70
2022-11-04T00:07:03.713Z,90.90
2022-11-04T00:08:03.708Z,90.90
2022-11-04T00:09:03.687Z,90.80
2022-11-04T00:10:03.793Z,91.20
2022-11-04T00:11:03.675Z,90.90
2022-11-04T00:12:03.763Z,90.80
2022-11-04T00:13:03.726Z,90.90
2022-11-04T00:14:03.937Z,91.11
2022-11-04T00:15:03.788Z,91.11
2022-11-04T00:16:03.636Z,91.41
2022-11-04T00:17:03.612Z,91.52
2022-11-04T00:18:03.628Z,91.72
2022-11-04T00:19:03.656Z,91.92
2022-11-04T00:20:03.762Z,92.13
2022-11-04T00:21:03.577Z,92.13
2022-11-04T00:22:03.586Z,92.13
2022-11-04T00:23:03.584Z,91.92
2022-11-04T00:24:03.551Z,92.33
2022-11-04T00:25:03.563Z,92.74
2022-11-04T00:26:03.563Z,92.43
2022-11-04T00:27:03.515Z,92.64
2022-11-04T00:28:03.555Z,92.84
2022-11-04T00:29:03.489Z,93.25
2022-11-04T00:30:03.615Z,92.94
2022-11-04T00:31:03.477Z,93.55
2022-11-04T00:32:03.566Z,93.35
2022-11-04T00:33:03.496Z,93.35
2022-11-04T00:34:03.460Z,93.25
2022-11-04T00:35:03.432Z,93.55
2022-11-04T00:36:03.508Z,93.55
2022-11-04T00:37:03.438Z,93.25
2022-11-04T00:38:03.413Z,93.25
2022-11-04T00:39:03.409Z,93.25
2022-11-04T00:40:03.380Z,93.25
2022-11-04T00:41:03.366Z,93.35
2022-11-04T00:42:03.381Z,93.15
2022-11-04T00:43:03.358Z,93.35
2022-11-04T00:44:03.415Z,94.17
2022-11-04T00:45:03.330Z,93.10
2022-11-04T00:46:03.322Z,93.76
2022-11-04T00:47:03.351Z,93.51
2022-11-04T00:48:03.316Z,93.71
2022-11-04T00:49:03.316Z,93.76
2022-11-04T00:50:03.296Z,93.76
2022-11-04T00:51:03.324Z,93.96
2022-11-04T00:52:03.331Z,93.62
2022-11-04T00:53:03.266Z,93.92
2022-11-04T00:54:03.247Z,94.27
2022-11-04T00:55:03.236Z,94.37
2022-11-04T00:56:03.246Z,94.48
2022-11-04T00:57:03.246Z,93.55
2022-11-04T00:58:03.224Z,94.68
2022-11-04T00:59:03.216Z,94.68
2022-11-04T01:00:03.190Z,94.58
2022-11-04T01:01:03.251Z,94.37
2022-11-04T01:02:03.352Z,94.37
2022-11-04T01:03:03.238Z,93.35
2022-11-04T01:04:03.155Z,94.48
2022-11-04T01:05:03.129Z,94.23
2022-11-04T01:06:03.286Z,94.48
2022-11-04T01:07:03.139Z,94.23
2022-11-04T01:08:03.165Z,93.41
2022-11-04T01:09:03.110Z,94.33
2022-11-04T01:10:03.103Z,94.53
2022-11-04T01:11:03.073Z,94.53
2022-11-04T01:12:03.087Z,94.43
2022-11-04T01:13:03.072Z,94.53
2022-11-04T01:14:03.101Z,94.23
2022-11-04T01:15:03.095Z,93.41
2022-11-04T01:16:03.030Z,93.92
2022-11-04T01:17:03.021Z,93.92
2022-11-04T01:18:03.033Z,93.71
2022-11-04T01:19:02.999Z,94.02
2022-11-04T01:20:03.087Z,94.23
2022-11-04T01:21:02.977Z,93.82
2022-11-04T01:22:02.995Z,94.02
2022-11-04T01:23:02.970Z,93.51
2022-11-04T01:24:03.013Z,92.90
2022-11-04T01:25:02.988Z,93.00
2022-11-04T01:26:02.933Z,92.69
2022-11-04T01:27:02.935Z,92.45
2022-11-04T01:28:02.905Z,92.55
2022-11-04T01:29:02.917Z,92.24
2022-11-04T01:30:02.941Z,91.83
2022-11-04T01:31:02.880Z,91.74
2022-11-04T01:32:02.885Z,91.63
2022-11-04T01:33:02.857Z,91.74
2022-11-04T01:34:02.848Z,91.63
2022-11-04T01:35:02.843Z,91.43
2022-11-04T01:36:02.827Z,91.22
2022-11-04T01:37:02.853Z,91.83
2022-11-04T01:38:02.813Z,91.53
2022-11-04T01:39:02.842Z,91.53
2022-11-04T01:40:02.793Z,91.63
2022-11-04T01:41:02.804Z,91.43
2022-11-04T01:43:02.779Z,91.53
2022-11-04T01:44:02.763Z,90.81
2022-11-04T01:45:02.733Z,90.92
2022-11-04T01:46:02.723Z,91.12
2022-11-04T01:47:02.724Z,90.98
2022-11-04T01:48:02.729Z,90.77
2022-11-04T01:49:02.723Z,90.67
2022-11-04T01:50:02.685Z,90.20
2022-11-04T01:51:02.666Z,90.61
2022-11-04T01:52:02.687Z,90.41
2022-11-04T01:53:02.657Z,89.96
2022-11-04T01:54:02.665Z,90.00
2022-11-04T01:55:02.673Z,90.00
2022-11-04T01:56:02.646Z,89.39
2022-11-04T01:57:02.622Z,89.28
2022-11-04T01:58:02.602Z,89.14
2022-11-04T01:59:02.596Z,88.78
2022-11-04T02:00:02.599Z,88.84
2022-11-04T02:01:02.695Z,89.04
2022-11-04T02:02:02.660Z,88.73
2022-11-04T02:03:02.568Z,88.63
2022-11-04T02:04:02.551Z,88.84
2022-11-04T02:05:02.543Z,88.63
2022-11-04T02:06:02.573Z,88.22
2022-11-04T02:07:02.555Z,88.43
2022-11-04T02:08:02.553Z,87.85
2022-11-04T02:09:02.528Z,87.71
2022-11-04T02:10:02.489Z,87.71
2022-11-04T02:11:02.483Z,87.92
2022-11-04T02:12:02.555Z,87.92
2022-11-04T02:13:02.454Z,87.71
2022-11-04T02:14:02.439Z,87.55
2022-11-04T02:15:02.479Z,88.02
2022-11-04T02:16:02.450Z,87.85
2022-11-04T02:17:02.545Z,87.71
2022-11-04T02:18:02.478Z,88.17
2022-11-04T02:19:02.392Z,88.06
2022-11-04T02:20:02.395Z,87.00
2022-11-04T02:21:02.384Z,87.45
2022-11-04T02:22:02.372Z,87.65
2022-11-04T02:23:02.375Z,88.26
2022-11-04T02:24:02.345Z,87.35
2022-11-04T02:25:02.352Z,88.26
2022-11-04T02:26:02.323Z,88.37
2022-11-04T02:27:02.308Z,88.17
2022-11-04T02:28:02.331Z,87.96
2022-11-04T02:29:02.321Z,88.06
2022-11-04T02:30:02.283Z,88.26
2022-11-04T02:31:34.174Z,88.06
2022-11-04T02:32:02.247Z,87.96
2022-11-04T02:33:02.233Z,87.85
2022-11-04T02:34:02.251Z,88.57
2022-11-04T02:35:02.273Z,87.65
2022-11-04T02:36:02.228Z,88.26
2022-11-04T02:37:02.206Z,88.17
2022-11-04T02:38:02.203Z,88.26
2022-11-04T02:39:02.186Z,88.00
2022-11-04T02:40:02.195Z,88.47
2022-11-04T02:41:02.280Z,88.26
2022-11-04T02:42:02.176Z,87.35
2022-11-04T02:43:02.164Z,87.55
2022-11-04T02:44:02.139Z,87.65
2022-11-04T02:45:02.154Z,87.96
2022-11-04T02:46:02.134Z,87.76
2022-11-04T02:47:02.130Z,88.37
2022-11-04T02:48:02.106Z,88.37
2022-11-04T02:49:02.087Z,88.37
2022-11-04T02:50:02.094Z,88.43
2022-11-04T02:51:02.065Z,87.76
2022-11-04T02:52:02.076Z,87.96
2022-11-04T02:53:02.042Z,87.96
2022-11-04T02:54:02.049Z,88.37
2022-11-04T02:55:02.025Z,87.96
2022-11-04T02:56:02.100Z,87.79
2022-11-04T02:57:02.005Z,87.65
2022-11-04T02:58:02.020Z,88.26
2022-11-04T02:59:02.003Z,87.96
2022-11-04T03:00:01.974Z,88.41
2022-11-04T03:01:02.040Z,88.00
2022-11-04T03:02:02.026Z,88.00
2022-11-04T03:03:02.001Z,88.17
2022-11-04T03:04:01.994Z,88.20
2022-11-04T03:05:01.923Z,87.79
2022-11-04T03:06:01.919Z,87.29
2022-11-04T03:07:02.044Z,87.08
2022-11-04T03:08:01.892Z,87.49
2022-11-04T03:09:01.905Z,87.29
2022-11-04T03:10:01.891Z,87.08
2022-11-04T03:11:01.861Z,87.59
2022-11-04T03:12:01.866Z,87.70
2022-11-04T03:13:01.846Z,86.67
2022-11-04T03:14:01.837Z,87.02
2022-11-04T03:15:01.857Z,87.59
2022-11-04T03:16:01.824Z,87.32
2022-11-04T03:17:01.810Z,88.00
2022-11-04T03:18:01.826Z,87.59
2022-11-04T03:19:01.788Z,87.59
2022-11-04T03:20:01.777Z,87.49
2022-11-04T03:21:01.784Z,87.18
2022-11-04T03:22:01.743Z,87.08
2022-11-04T03:23:01.738Z,86.67
2022-11-04T03:24:01.740Z,87.08
2022-11-04T03:25:01.748Z,86.98
2022-11-04T03:26:01.712Z,86.98
2022-11-04T03:27:01.696Z,87.08
2022-11-04T03:28:01.714Z,86.47
2022-11-04T03:29:01.684Z,86.77
2022-11-04T03:30:01.731Z,86.57
2022-11-04T03:31:01.658Z,86.61
2022-11-04T03:32:01.744Z,86.61
2022-11-04T03:33:01.633Z,86.61
2022-11-04T03:34:01.637Z,86.82
2022-11-04T03:35:01.644Z,86.61
2022-11-04T03:36:01.599Z,85.79
2022-11-04T03:37:01.594Z,85.79
2022-11-04T03:38:01.589Z,85.38
2022-11-04T03:39:01.596Z,85.38
2022-11-04T03:40:01.578Z,84.77
2022-11-04T03:41:01.585Z,84.77
2022-11-04T03:42:01.559Z,85.08
2022-11-04T03:43:01.569Z,83.85
2022-11-04T03:44:01.535Z,84.47
2022-11-04T03:45:01.562Z,84.98
2022-11-04T03:46:01.505Z,84.67
2022-11-04T03:47:01.510Z,84.06
2022-11-04T03:48:01.515Z,83.61
2022-11-04T03:49:01.506Z,82.42
2022-11-04T03:50:01.524Z,82.83
2022-11-04T03:51:01.483Z,82.01
2022-11-04T03:52:01.518Z,82.42
2022-11-04T03:53:01.447Z,82.53
2022-11-04T03:54:01.498Z,82.53
2022-11-04T03:55:01.439Z,81.91
2022-11-04T03:56:01.418Z,82.22
2022-11-04T03:57:01.405Z,82.42
2022-11-04T03:58:01.396Z,82.87
2022-11-04T03:59:01.405Z,82.67
2022-11-04T04:00:01.428Z,82.46
2022-11-04T04:01:01.417Z,83.38
2022-11-04T04:02:01.433Z,82.97
2022-11-04T04:03:01.380Z,83.59
2022-11-04T04:04:01.385Z,83.18
2022-11-04T04:05:01.320Z,82.87
2022-11-04T04:06:01.314Z,83.38
2022-11-04T04:07:01.302Z,82.87
2022-11-04T04:08:01.317Z,83.01
2022-11-04T04:09:01.288Z,81.99
2022-11-04T04:10:01.300Z,82.56
2022-11-04T04:11:01.304Z,82.40
2022-11-04T04:12:01.257Z,82.20
2022-11-04T04:13:01.275Z,82.40
2022-11-04T04:14:01.233Z,82.70
2022-11-04T04:15:01.229Z,82.20
2022-11-04T04:16:01.244Z,82.09
2022-11-04T04:17:01.239Z,81.58
2022-11-04T04:18:01.200Z,81.48
2022-11-04T04:19:01.194Z,81.27
2022-11-04T04:20:01.174Z,81.65
2022-11-04T04:21:01.167Z,81.48
2022-11-04T04:22:01.170Z,81.85
2022-11-04T04:23:01.168Z,81.95
2022-11-04T04:24:01.177Z,81.34
2022-11-04T04:25:01.137Z,81.44
2022-11-04T04:26:01.123Z,81.34
2022-11-04T04:27:01.098Z,81.03
2022-11-04T04:28:01.097Z,81.24
2022-11-04T04:29:01.084Z,81.27
2022-11-04T04:30:01.093Z,81.74
2022-11-04T04:31:01.112Z,81.88
2022-11-04T04:32:01.106Z,81.88
2022-11-04T04:33:01.063Z,82.05
2022-11-04T04:34:01.040Z,81.44
2022-11-04T04:35:01.045Z,81.85
2022-11-04T04:36:01.059Z,81.24
2022-11-04T04:37:01.003Z,81.85
2022-11-04T04:38:00.996Z,81.85
2022-11-04T04:39:00.989Z,81.48
2022-11-04T04:40:01.002Z,81.51
2022-11-04T04:41:01.003Z,81.48
2022-11-04T04:42:01.020Z,81.62
2022-11-04T04:43:00.939Z,81.48
2022-11-04T04:44:00.938Z,81.51
2022-11-04T04:45:00.909Z,81.62
2022-11-04T04:46:00.979Z,81.62
2022-11-04T04:47:01.954Z,81.51
2022-11-04T04:48:00.900Z,81.99
2022-11-04T04:49:00.888Z,80.87
2022-11-04T04:50:00.882Z,81.27
2022-11-04T04:51:00.872Z,81.03
2022-11-04T04:52:00.870Z,81.34
2022-11-04T04:53:00.864Z,81.34
2022-11-04T04:54:00.833Z,81.24
2022-11-04T04:55:00.821Z,80.42
2022-11-04T04:56:00.839Z,80.83
2022-11-04T04:57:00.809Z,80.83
2022-11-04T04:58:00.773Z,80.73
2022-11-04T04:59:00.788Z,81.38
2022-11-04T05:00:00.790Z,81.48
2022-11-04T05:01:00.845Z,81.58
2022-11-04T05:02:00.880Z,81.38
2022-11-04T05:03:00.744Z,81.79
2022-11-04T05:04:00.725Z,81.99
2022-11-04T05:05:00.771Z,82.09
2022-11-04T05:06:00.732Z,82.09
2022-11-04T05:07:00.715Z,82.60
2022-11-04T05:08:00.690Z,82.81
2022-11-04T05:09:00.690Z,82.50
2022-11-04T05:10:00.680Z,82.09
2022-11-04T05:11:00.660Z,82.91
2022-11-04T05:12:00.674Z,82.50
2022-11-04T05:13:00.665Z,82.09
2022-11-04T05:14:00.633Z,83.01
2022-11-04T05:15:00.608Z,83.46
2022-11-04T05:16:01.627Z,83.87
2022-11-04T05:17:00.633Z,83.76
2022-11-04T05:18:00.623Z,84.99
2022-11-04T05:19:00.613Z,85.14
2022-11-04T05:20:00.578Z,85.44
2022-11-04T05:21:00.595Z,86.05
2022-11-04T05:22:00.596Z,85.75
2022-11-04T05:23:00.557Z,86.40
2022-11-04T05:24:00.530Z,86.98
2022-11-04T05:25:00.526Z,86.61
2022-11-04T05:26:00.541Z,86.81
2022-11-04T05:27:00.509Z,87.02
2022-11-04T05:28:00.529Z,87.02
2022-11-04T05:29:00.585Z,87.02
2022-11-04T05:30:00.509Z,86.91
2022-11-04T05:31:00.471Z,87.08
2022-11-04T05:32:00.463Z,87.02
2022-11-04T05:33:04.631Z,87.38
2022-11-04T05:34:00.435Z,87.43
2022-11-04T05:35:00.444Z,87.12
2022-11-04T05:36:00.422Z,86.98
2022-11-04T05:37:00.406Z,87.70
2022-11-04T05:38:00.407Z,87.59
2022-11-04T05:39:00.380Z,87.22
2022-11-04T05:40:00.394Z,87.73
2022-11-04T05:41:00.453Z,87.53
2022-11-04T05:42:00.358Z,87.53
2022-11-04T05:43:00.364Z,87.53
2022-11-04T05:44:00.393Z,87.32
2022-11-04T05:45:00.331Z,87.22
2022-11-04T05:46:00.322Z,87.12
2022-11-04T05:47:00.321Z,87.32
2022-11-04T05:48:00.296Z,87.02
2022-11-04T05:49:00.305Z,87.02
2022-11-04T05:50:01.283Z,87.02
2022-11-04T05:51:00.285Z,86.81
2022-11-04T05:52:00.292Z,86.71
2022-11-04T05:53:00.396Z,86.81
2022-11-04T05:54:00.260Z,86.71
2022-11-04T05:55:00.290Z,87.12
2022-11-04T05:56:00.224Z,86.81
2022-11-04T05:57:00.209Z,87.26
2022-11-04T05:58:00.203Z,87.12
2022-11-04T05:59:00.207Z,85.69
2022-11-04T06:00:00.224Z,85.99
2022-11-04T06:01:00.167Z,86.10
2022-11-04T06:02:00.328Z,85.48
2022-11-04T06:03:00.275Z,85.69
2022-11-04T06:04:00.186Z,85.93
2022-11-04T06:05:00.159Z,85.79
2022-11-04T06:06:00.157Z,85.89
2022-11-04T06:07:00.104Z,85.89
2022-11-04T06:08:00.116Z,85.69
2022-11-04T06:09:00.103Z,86.10
2022-11-04T06:10:00.090Z,86.14
2022-11-04T06:11:00.075Z,86.44
2022-11-04T06:12:00.206Z,85.93
2022-11-04T06:13:00.100Z,87.26
2022-11-04T06:14:00.036Z,87.16
2022-11-04T06:15:00.035Z,86.96
2022-11-04T06:16:00.056Z,86.85
2022-11-04T06:17:00.120Z,86.85
2022-11-04T06:18:00.023Z,86.85
2022-11-04T06:19:03.550Z,86.96
2022-11-04T06:20:00.986Z,86.75
2022-11-04T06:20:59.979Z,86.96
2022-11-04T06:22:00.042Z,87.26
2022-11-04T06:22:59.948Z,87.26
2022-11-04T06:23:59.959Z,87.06
2022-11-04T06:24:59.932Z,86.55
2022-11-04T06:25:59.916Z,85.69
2022-11-04T06:26:59.909Z,85.99
2022-11-04T06:27:59.904Z,86.20
2022-11-04T06:28:59.912Z,85.99
2022-11-04T06:29:59.887Z,85.42
2022-11-04T06:30:59.907Z,85.89
2022-11-04T06:31:59.856Z,85.79
2022-11-04T06:32:59.846Z,85.58
2022-11-04T06:33:59.865Z,85.69
2022-11-04T06:34:59.834Z,85.89
2022-11-04T06:35:59.827Z,85.99
2022-11-04T06:36:59.827Z,85.58
2022-11-04T06:37:59.805Z,85.72
2022-11-04T06:39:04.344Z,85.79
2022-11-04T06:40:00.776Z,86.10
2022-11-04T06:40:59.810Z,85.79
2022-11-04T06:42:02.705Z,85.69
2022-11-04T06:42:59.797Z,85.89
2022-11-04T06:43:59.754Z,85.99
2022-11-04T06:44:59.733Z,85.89
2022-11-04T06:45:59.744Z,85.89
2022-11-04T06:46:59.713Z,85.79
2022-11-04T06:47:59.722Z,85.69
2022-11-04T06:48:59.691Z,85.89
2022-11-04T06:49:59.694Z,85.79
2022-11-04T06:50:59.675Z,85.48
2022-11-04T06:51:59.681Z,85.24
2022-11-04T06:52:59.665Z,84.56
2022-11-04T06:53:59.631Z,85.07
2022-11-04T06:54:59.659Z,85.28
2022-11-04T06:55:59.690Z,85.28
2022-11-04T06:56:59.652Z,84.77
2022-11-04T06:57:59.595Z,84.25
2022-11-04T06:58:59.592Z,84.97
2022-11-04T06:59:59.604Z,84.93
2022-11-04T07:00:59.579Z,85.03
2022-11-04T07:02:00.698Z,84.72
2022-11-04T07:02:59.542Z,85.14
2022-11-04T07:03:59.537Z,84.93
2022-11-04T07:04:59.558Z,85.17
2022-11-04T07:05:59.518Z,84.83
2022-11-04T07:06:59.598Z,84.97
2022-11-04T07:07:59.493Z,84.31
2022-11-04T07:08:59.492Z,83.81
2022-11-04T07:09:59.575Z,84.11
2022-11-04T07:10:59.463Z,84.42
2022-11-04T07:11:59.455Z,83.91
2022-11-04T07:12:59.443Z,84.42
2022-11-04T07:14:00.456Z,84.15
2022-11-04T07:14:59.421Z,83.81
2022-11-04T07:15:59.495Z,84.01
2022-11-04T07:16:59.426Z,83.91
2022-11-04T07:17:59.394Z,83.91
2022-11-04T07:18:59.388Z,83.91
2022-11-04T07:19:59.436Z,84.11
2022-11-04T07:20:59.425Z,83.76
2022-11-04T07:21:59.383Z,83.91
2022-11-04T07:22:59.343Z,83.76
2022-11-04T07:23:59.364Z,83.66
2022-11-04T07:24:59.361Z,83.87
2022-11-04T07:25:59.320Z,83.46
2022-11-04T07:26:59.320Z,83.87
2022-11-04T07:28:02.122Z,83.46
2022-11-04T07:29:00.303Z,83.36
2022-11-04T07:29:59.352Z,83.36
2022-11-04T07:30:59.383Z,83.36
2022-11-04T07:31:59.255Z,83.46
2022-11-04T07:32:59.331Z,83.46
2022-11-04T07:33:59.240Z,83.46
2022-11-04T07:34:59.244Z,83.05
2022-11-04T07:35:59.257Z,83.32
2022-11-04T07:36:59.210Z,83.46
2022-11-04T07:37:59.219Z,83.62
2022-11-04T07:38:59.194Z,82.70
2022-11-04T07:39:59.181Z,82.70
2022-11-04T07:40:59.167Z,83.22
2022-11-04T07:41:59.773Z,83.42
2022-11-04T07:42:59.182Z,83.42
2022-11-04T07:43:59.148Z,83.42
2022-11-04T07:44:59.134Z,82.91
2022-11-04T07:45:59.115Z,83.11
2022-11-04T07:46:59.114Z,83.48
2022-11-04T07:47:59.086Z,82.67
2022-11-04T07:48:59.136Z,81.48
2022-11-04T07:49:59.122Z,82.15
2022-11-04T07:50:59.069Z,81.85
2022-11-04T07:51:59.057Z,82.36
2022-11-04T07:52:59.082Z,82.70
2022-11-04T07:53:59.067Z,82.91
2022-11-04T07:54:59.034Z,83.01
2022-11-04T07:55:59.006Z,82.70
2022-11-04T07:56:58.994Z,82.03
2022-11-04T07:57:58.986Z,83.05
2022-11-04T07:58:59.001Z,82.95
2022-11-04T07:59:59.003Z,82.68
2022-11-04T08:00:58.957Z,83.46
2022-11-04T08:01:59.143Z,83.70
2022-11-04T08:02:59.003Z,84.07
2022-11-04T08:03:58.935Z,83.46
2022-11-04T08:04:58.932Z,83.39
2022-11-04T08:05:58.909Z,83.46
2022-11-04T08:06:58.903Z,82.89
2022-11-04T08:07:58.889Z,82.95
2022-11-04T08:08:58.993Z,82.64
2022-11-04T08:09:58.861Z,83.05
2022-11-04T08:10:58.854Z,83.11
2022-11-04T08:11:58.860Z,82.40
2022-11-04T08:12:58.864Z,82.50
2022-11-04T08:13:58.874Z,82.50
2022-11-04T08:14:58.884Z,82.67
2022-11-04T08:15:58.811Z,82.26
2022-11-04T08:16:58.805Z,82.46
2022-11-04T08:17:58.807Z,81.91
2022-11-04T08:18:58.804Z,81.81
2022-11-04T08:19:58.778Z,80.99
2022-11-04T08:20:58.765Z,80.79
2022-11-04T08:21:58.752Z,81.20
2022-11-04T08:22:58.740Z,81.03
2022-11-04T08:23:58.748Z,80.89
2022-11-04T08:24:58.744Z,81.13
2022-11-04T08:25:58.815Z,81.24
2022-11-04T08:26:58.703Z,81.20
2022-11-04T08:28:01.105Z,81.40
2022-11-04T08:28:58.696Z,81.85
2022-11-04T08:29:58.690Z,81.71
2022-11-04T08:31:00.553Z,81.60
2022-11-04T08:32:24.571Z,81.30
2022-11-04T08:32:58.687Z,80.69
2022-11-04T08:33:58.684Z,80.79
2022-11-04T08:34:58.647Z,81.10
2022-11-04T08:35:58.657Z,80.48
2022-11-04T08:36:58.625Z,79.60
2022-11-04T08:37:58.605Z,79.70
2022-11-04T08:38:58.592Z,80.83
2022-11-04T08:39:58.586Z,81.24
2022-11-04T08:41:00.087Z,81.24
2022-11-04T08:41:58.599Z,81.03
2022-11-04T08:42:58.560Z,81.24
2022-11-04T08:43:58.552Z,81.44
2022-11-04T08:44:58.552Z,81.34
2022-11-04T08:45:58.546Z,81.95
2022-11-04T08:46:58.539Z,80.99
2022-11-04T08:48:04.176Z,81.60
2022-11-04T08:49:01.167Z,80.93
2022-11-04T08:49:58.500Z,80.79
2022-11-04T08:50:58.490Z,80.85
2022-11-04T08:51:58.471Z,81.10
2022-11-04T08:52:58.492Z,80.65
2022-11-04T08:53:58.448Z,79.32
2022-11-04T08:54:58.463Z,79.52
2022-11-04T08:55:58.429Z,79.43
2022-11-04T08:56:58.427Z,79.49
2022-11-04T08:57:58.470Z,78.88
2022-11-04T08:58:58.411Z,78.57
2022-11-04T08:59:58.403Z,78.57
2022-11-04T09:00:58.374Z,78.53
2022-11-04T09:01:58.497Z,77.92
2022-11-04T09:02:58.359Z,77.51
2022-11-04T09:03:58.395Z,77.98
2022-11-04T09:04:58.351Z,77.48
2022-11-04T09:05:58.332Z,76.32
2022-11-04T09:06:58.332Z,76.32
2022-11-04T09:07:58.315Z,76.73
2022-11-04T09:08:58.366Z,76.76
2022-11-04T09:09:58.347Z,74.96
2022-11-04T09:10:58.310Z,76.29
2022-11-04T09:11:58.271Z,76.46
2022-11-04T09:12:58.256Z,76.39
2022-11-04T09:13:58.255Z,76.59
2022-11-04T09:14:58.289Z,76.50
2022-11-04T09:15:58.286Z,76.80
2022-11-04T09:16:58.231Z,76.70
2022-11-04T09:17:58.218Z,77.41
2022-11-04T09:18:58.205Z,77.00
2022-11-04T09:19:58.218Z,77.51
2022-11-04T09:20:58.369Z,77.41
2022-11-04T09:21:58.190Z,76.70
2022-11-04T09:22:58.160Z,76.46
2022-11-04T09:23:58.170Z,76.56
2022-11-04T09:24:58.160Z,76.35
2022-11-04T09:25:58.130Z,76.22
2022-11-04T09:26:58.127Z,74.99
2022-11-04T09:27:58.134Z,75.81
2022-11-04T09:28:58.294Z,75.92
2022-11-04T09:29:59.112Z,74.99
2022-11-04T09:30:58.102Z,75.20
2022-11-04T09:31:58.074Z,75.92
2022-11-04T09:32:58.066Z,74.79
2022-11-04T09:33:58.053Z,75.10
2022-11-04T09:34:58.068Z,75.40
2022-11-04T09:35:58.058Z,75.23
2022-11-04T09:36:58.108Z,76.01
2022-11-04T09:37:58.017Z,76.56
2022-11-04T09:38:58.000Z,75.85
2022-11-04T09:39:57.999Z,76.35
2022-11-04T09:40:58.008Z,76.66
2022-11-04T09:41:58.036Z,76.66
2022-11-04T09:42:57.986Z,76.46
2022-11-04T09:43:58.003Z,76.66
2022-11-04T09:45:20.666Z,76.46
2022-11-04T09:46:00.035Z,75.74
2022-11-04T09:46:57.918Z,77.00
2022-11-04T09:47:57.911Z,76.50
2022-11-04T09:48:57.910Z,77.21
2022-11-04T09:49:58.021Z,77.41
2022-11-04T09:50:57.898Z,76.39
2022-11-04T09:51:57.875Z,76.93
2022-11-04T09:52:57.930Z,76.39
2022-11-04T09:53:57.888Z,76.59
2022-11-04T09:54:57.846Z,77.65
2022-11-04T09:55:57.847Z,77.51
2022-11-04T09:56:57.838Z,76.76
2022-11-04T09:57:57.897Z,76.56
2022-11-04T09:58:57.812Z,76.70
2022-11-04T09:59:57.788Z,76.19
2022-11-04T10:00:57.848Z,76.19
2022-11-04T10:01:57.896Z,76.56
2022-11-04T10:02:57.803Z,76.35
2022-11-04T10:03:57.819Z,76.15
2022-11-04T10:04:57.741Z,75.34
2022-11-04T10:05:57.745Z,76.22
2022-11-04T10:06:57.720Z,74.99
2022-11-04T10:07:57.749Z,75.98
2022-11-04T10:08:57.818Z,74.96
2022-11-04T10:09:57.704Z,74.38
2022-11-04T10:10:57.700Z,74.35
2022-11-04T10:11:57.688Z,75.27
2022-11-04T10:12:57.660Z,75.16
2022-11-04T10:13:57.671Z,75.13
2022-11-04T10:14:57.639Z,74.72
2022-11-04T10:15:57.633Z,74.62
2022-11-04T10:16:57.690Z,74.01
2022-11-04T10:17:57.633Z,74.32
2022-11-04T10:18:57.603Z,73.91
2022-11-04T10:19:57.673Z,74.62
2022-11-04T10:20:57.644Z,74.11
2022-11-04T10:21:57.603Z,74.32
2022-11-04T10:22:57.582Z,74.38
2022-11-04T10:23:57.541Z,73.67
2022-11-04T10:24:57.633Z,74.38
2022-11-04T10:25:57.599Z,74.85
2022-11-04T10:27:00.375Z,72.75
2022-11-04T10:27:57.519Z,72.34
2022-11-04T10:28:57.554Z,73.40
2022-11-04T10:29:57.568Z,72.92
2022-11-04T10:30:57.560Z,74.11
2022-11-04T10:31:57.482Z,74.52
2022-11-04T10:32:57.484Z,73.50
2022-11-04T10:33:57.511Z,73.94
2022-11-04T10:34:57.489Z,73.91
2022-11-04T10:35:57.491Z,72.75
2022-11-04T10:36:57.466Z,73.63
2022-11-04T10:37:57.474Z,72.82
2022-11-04T10:38:57.418Z,72.86
2022-11-04T10:39:57.434Z,72.52
2022-11-04T10:40:58.317Z,72.62
2022-11-04T10:41:57.390Z,72.58
2022-11-04T10:42:57.409Z,72.69
2022-11-04T10:43:57.368Z,70.96
2022-11-04T10:44:57.380Z,71.87
2022-11-04T10:45:57.391Z,71.64
2022-11-04T10:46:57.344Z,71.84
2022-11-04T10:47:57.362Z,71.23
2022-11-04T10:48:57.325Z,71.64
2022-11-04T10:50:28.855Z,70.62
2022-11-04T10:50:59.343Z,71.12
2022-11-04T10:51:57.300Z,71.03
2022-11-04T10:52:57.284Z,71.94
2022-11-04T10:53:57.388Z,71.12
2022-11-04T10:54:57.283Z,71.23
2022-11-04T10:55:57.277Z,71.03
2022-11-04T10:56:57.337Z,70.42
2022-11-04T10:57:57.245Z,71.06
2022-11-04T10:58:57.224Z,71.26
2022-11-04T10:59:57.248Z,72.08
2022-11-04T11:00:57.271Z,70.96
2022-11-04T11:01:57.352Z,71.26
2022-11-04T11:02:57.179Z,70.86
2022-11-04T11:03:57.166Z,69.84
2022-11-04T11:04:57.156Z,70.07
2022-11-04T11:05:57.180Z,72.08
2022-11-04T11:06:57.151Z,71.09
2022-11-04T11:07:57.142Z,71.06
2022-11-04T11:08:57.117Z,69.87
2022-11-04T11:09:57.131Z,68.72
2022-11-04T11:10:57.097Z,70.35
2022-11-04T11:11:57.108Z,69.60
2022-11-04T11:12:57.078Z,69.81
2022-11-04T11:13:57.089Z,69.50
2022-11-04T11:14:57.115Z,69.70
2022-11-04T11:15:57.045Z,68.89
2022-11-04T11:16:57.049Z,69.09
2022-11-04T11:17:57.026Z,68.96
2022-11-04T11:18:58.017Z,68.89
2022-11-04T11:19:57.026Z,67.97
2022-11-04T11:20:57.047Z,67.88
2022-11-04T11:21:57.050Z,66.55
2022-11-04T11:23:01.937Z,68.08
2022-11-04T11:23:59.059Z,69.94
2022-11-04T11:24:56.950Z,70.62
2022-11-04T11:25:56.989Z,69.94
2022-11-04T11:26:56.930Z,70.21
2022-11-04T11:27:56.973Z,69.91
2022-11-04T11:28:59.346Z,69.06
2022-11-04T11:29:57.971Z,68.82
2022-11-04T11:30:56.899Z,69.13
2022-11-04T11:31:56.894Z,70.48
2022-11-04T11:32:56.878Z,70.18
2022-11-04T11:33:56.897Z,69.87
2022-11-04T11:34:56.891Z,70.45
2022-11-04T11:35:56.854Z,70.14
2022-11-04T11:36:56.846Z,70.25
2022-11-04T11:37:56.859Z,70.35
2022-11-04T11:38:56.854Z,69.84
2022-11-04T11:39:56.810Z,69.60
2022-11-04T11:41:23.438Z,69.20
2022-11-04T11:41:58.787Z,68.69
2022-11-04T11:42:56.907Z,68.99
2022-11-04T11:43:56.808Z,68.59
2022-11-04T11:44:56.784Z,69.40
2022-11-04T11:45:56.778Z,71.23
2022-11-04T11:46:56.777Z,69.70
2022-11-04T11:47:56.724Z,69.91
2022-11-04T11:48:56.745Z,69.30
2022-11-04T11:49:56.698Z,69.91
2022-11-04T11:50:56.701Z,69.81
2022-11-04T11:51:56.773Z,69.81
2022-11-04T11:52:57.647Z,69.02
2022-11-04T11:53:56.667Z,69.77
2022-11-04T11:54:56.697Z,69.97
2022-11-04T11:55:56.676Z,69.87
2022-11-04T11:57:13.297Z,70.55
2022-11-04T12:01:03.518Z,69.60
2022-11-04T12:01:57.673Z,69.40
2022-11-04T12:02:57.133Z,68.69
2022-11-04T12:09:57.510Z,69.53
2022-11-04T12:10:56.497Z,69.13
2022-11-04T12:11:56.487Z,68.82
2022-11-04T12:12:56.483Z,69.84
2022-11-04T12:13:56.513Z,69.74
2022-11-04T12:14:56.462Z,69.74
2022-11-04T12:15:56.465Z,68.92
2022-11-04T12:16:56.448Z,68.59
2022-11-04T12:17:56.430Z,69.20
2022-11-04T12:18:56.461Z,67.88
2022-11-04T12:19:56.407Z,65.84
2022-11-04T12:20:56.434Z,66.25
2022-11-04T12:21:56.383Z,67.44
2022-11-04T12:22:56.416Z,66.93
2022-11-04T12:23:56.369Z,66.93
2022-11-04T12:24:56.372Z,67.30
2022-11-04T12:25:56.361Z,66.80
2022-11-04T12:26:56.333Z,66.42
2022-11-04T12:27:56.323Z,67.44
2022-11-04T12:28:56.320Z,68.05
2022-11-04T12:29:56.311Z,67.84
2022-11-04T12:30:56.322Z,68.59
2022-11-04T12:31:56.292Z,67.74
2022-11-04T12:32:56.275Z,67.91
2022-11-04T12:33:56.286Z,67.13
2022-11-04T12:34:56.292Z,67.44
2022-11-04T12:35:56.383Z,67.74
2022-11-04T12:36:56.218Z,67.94
2022-11-04T12:37:56.222Z,66.63
2022-11-04T12:38:56.240Z,67.64
2022-11-04T12:39:56.199Z,67.94
2022-11-04T12:41:27.781Z,68.66
2022-11-04T12:42:58.171Z,67.84
2022-11-04T12:43:56.188Z,66.63
2022-11-04T12:44:56.190Z,67.64
2022-11-04T12:45:56.190Z,67.00
2022-11-04T12:46:56.121Z,67.03
2022-11-04T12:47:57.150Z,65.71
2022-11-04T12:48:59.026Z,67.06
2022-11-04T12:49:57.107Z,66.63
2022-11-04T12:50:56.095Z,66.52
2022-11-04T12:51:56.149Z,66.19
2022-11-04T12:52:56.085Z,64.90
2022-11-04T12:53:56.062Z,65.94
2022-11-04T12:54:56.064Z,66.12
2022-11-04T12:55:56.122Z,63.51
2022-11-04T12:56:56.035Z,63.60
2022-11-04T12:57:56.016Z,63.71
2022-11-04T12:58:56.155Z,64.22
2022-11-04T12:59:56.018Z,64.01
2022-11-04T13:00:59.441Z,64.52
2022-11-04T13:01:57.090Z,63.60
2022-11-04T13:02:55.959Z,63.71